Time;durP1;ratioP1;P1;durP2;ratioP2;P2;SDS_P1;SDS_P2;PMS_P1;PMS_P2;Temp;Humidity;BMP_temperature;BMP_pressure;BME280_temperature;BME280_humidity;BME280_pressure;Samples;Min_cycle;Max_cycle;Signal;HPM_P1;HPM_P2
2021/03/31 00:02:24;;;;;;;8.48;4.53;;;10.70;99.90;;;;;;5055818;28;20087;-72
2021/03/31 00:04:50;;;;;;;7.93;4.70;;;10.60;99.90;;;;;;5052232;28;20033;-74
2021/03/31 00:07:16;;;;;;;9.10;4.40;;;10.70;1.00;;;;;;5055024;28;20021;-74
2021/03/31 00:09:41;;;;;;;9.13;5.10;;;10.70;77.30;;;;;;5049161;28;20033;-71
2021/03/31 00:12:08;;;;;;;7.35;4.68;;;10.60;1.00;;;;;;5047632;28;20075;-72
2021/03/31 00:14:35;;;;;;;9.07;4.93;;;10.60;90.70;;;;;;5054506;28;20059;-73
2021/03/31 00:17:00;;;;;;;9.95;4.90;;;10.50;41.50;;;;;;5048924;28;20037;-74
2021/03/31 00:19:26;;;;;;;7.45;5.05;;;10.50;1.00;;;;;;5053950;28;20476;-73
2021/03/31 00:21:51;;;;;;;10.05;4.47;;;10.40;1.00;;;;;;5051393;28;20095;-72
2021/03/31 00:24:17;;;;;;;9.93;4.63;;;10.30;99.90;;;;;;5054308;28;20021;-72
2021/03/31 00:26:42;;;;;;;11.25;5.07;;;10.20;1.00;;;;;;5069903;28;20044;-74
2021/03/31 00:29:08;;;;;;;9.35;4.75;;;10.30;99.90;;;;;;5054584;28;20025;-73
2021/03/31 00:31:34;;;;;;;7.00;4.75;;;10.30;58.10;;;;;;5053005;28;20029;-72
2021/03/31 00:33:59;;;;;;;11.85;5.53;;;10.40;50.60;;;;;;5048481;28;20029;-73
2021/03/31 00:36:25;;;;;;;6.82;4.30;;;10.30;99.90;;;;;;5052649;28;20058;-72
2021/03/31 00:38:50;;;;;;;9.43;6.38;;;10.20;99.90;;;;;;5042796;28;20076;-74
2021/03/31 00:41:16;;;;;;;9.35;4.85;;;10.20;81.00;;;;;;5043326;28;20036;-73
2021/03/31 00:43:42;;;;;;;10.68;6.32;;;10.10;1.00;;;;;;5053733;28;20029;-73
2021/03/31 00:46:07;;;;;;;6.32;5.20;;;10.10;14.20;;;;;;5080603;28;20037;-72
2021/03/31 00:48:33;;;;;;;13.25;5.47;;;10.00;99.90;;;;;;5063540;28;20025;-73
2021/03/31 00:51:00;;;;;;;9.65;5.32;;;10.00;1.00;;;;;;5056772;28;20021;-73
2021/03/31 00:53:29;;;;;;;8.63;4.45;;;9.90;1.00;;;;;;5046622;28;20041;-72
2021/03/31 00:55:55;;;;;;;13.57;5.20;;;9.90;99.90;;;;;;5053636;28;20037;-72
2021/03/31 00:58:21;;;;;;;9.98;5.40;;;9.90;99.90;;;;;;5049142;28;20071;-73
2021/03/31 01:00:47;;;;;;;11.43;5.95;;;9.90;99.90;;;;;;5053818;28;20028;-72
2021/03/31 01:03:13;;;;;;;14.23;5.78;;;9.80;1.00;;;;;;5069842;28;20017;-72
2021/03/31 01:05:38;;;;;;;8.65;4.88;;;9.80;22.00;;;;;;5054250;28;20029;-74
2021/03/31 01:08:04;;;;;;;9.85;5.88;;;9.80;91.90;;;;;;5045034;28;20021;-72
2021/03/31 01:10:35;;;;;;;11.23;5.65;;;9.70;99.90;;;;;;5053901;28;20032;-72
2021/03/31 01:13:19;;;;;;;15.63;6.47;;;9.60;99.90;;;;;;5052244;28;20029;-74
2021/03/31 01:15:54;;;;;;;9.52;4.88;;;9.60;99.90;;;;;;5046915;28;20543;-72
2021/03/31 01:18:26;;;;;;;7.95;5.63;;;9.60;99.90;;;;;;5051940;28;20025;-73
2021/03/31 01:21:05;;;;;;;8.55;4.72;;;9.50;1.00;;;;;;5053171;28;20032;-74
2021/03/31 01:23:42;;;;;;;11.93;6.13;;;9.50;1.00;;;;;;5045395;28;20039;-74
2021/03/31 01:26:23;;;;;;;12.70;5.40;;;9.50;1.00;;;;;;5044401;28;20400;-73
2021/03/31 01:29:07;;;;;;;9.68;6.63;;;9.40;1.00;;;;;;5052696;28;20025;-72
2021/03/31 01:31:39;;;;;;;9.00;5.15;;;9.30;10.80;;;;;;5050682;28;20129;-72
2021/03/31 01:34:42;;;;;;;10.07;4.72;;;9.30;1.00;;;;;;5049205;28;20546;-73
2021/03/31 01:37:13;;;;;;;8.15;4.90;;;9.30;27.60;;;;;;5037934;28;20040;-73
2021/03/31 01:39:40;;;;;;;;;;;9.30;53.00;;;;;;5052184;28;20076;-72
2021/03/31 01:42:08;;;;;;;11.32;4.88;;;9.20;99.90;;;;;;5044952;28;19909;-73
2021/03/31 01:44:36;;;;;;;12.48;4.95;;;9.20;99.90;;;;;;5046788;28;20058;-73
2021/03/31 01:47:02;;;;;;;8.77;5.00;;;9.20;99.90;;;;;;5046742;28;20026;-73
2021/03/31 01:49:28;;;;;;;10.77;5.35;;;9.20;99.90;;;;;;5065556;28;20016;-73
2021/03/31 01:51:57;;;;;;;10.77;5.80;;;9.10;99.90;;;;;;5048289;28;20428;-72
2021/03/31 01:54:24;;;;;;;12.32;6.55;;;9.10;99.90;;;;;;5046227;28;20029;-72
2021/03/31 01:56:50;;;;;;;12.68;6.25;;;9.10;99.90;;;;;;5052686;28;20067;-73
2021/03/31 01:59:22;;;;;;;8.88;5.20;;;9.10;99.90;;;;;;5045577;28;20024;-73
2021/03/31 02:01:52;;;;;;;8.02;5.82;;;9.20;99.90;;;;;;5053105;28;20031;-72
2021/03/31 02:04:18;;;;;;;7.70;5.45;;;9.20;99.90;;;;;;5053520;28;20443;-73
2021/03/31 02:06:45;;;;;;;10.02;5.57;;;9.20;99.90;;;;;;5048960;28;20489;-72
2021/03/31 02:09:11;;;;;;;13.63;5.95;;;9.10;99.90;;;;;;5046636;28;20033;-72
2021/03/31 02:11:38;;;;;;;8.50;5.13;;;9.00;99.90;;;;;;5052115;28;20028;-72
2021/03/31 02:14:06;;;;;;;11.70;5.22;;;9.10;99.90;;;;;;5052470;28;20017;-71
2021/03/31 02:16:34;;;;;;;8.27;5.57;;;9.10;99.90;;;;;;5038604;28;20108;-72
2021/03/31 02:19:00;;;;;;;9.52;5.15;;;9.10;99.90;;;;;;5043573;28;20362;-72
2021/03/31 02:21:27;;;;;;;8.18;5.07;;;9.10;1.00;;;;;;5043022;28;20024;-72
2021/03/31 02:23:53;;;;;;;9.45;6.07;;;9.00;1.00;;;;;;5042276;28;20093;-73
2021/03/31 02:26:19;;;;;;;12.38;6.28;;;8.90;1.00;;;;;;5044788;28;20463;-72
2021/03/31 02:28:45;;;;;;;10.15;5.72;;;9.00;1.00;;;;;;5048863;28;20029;-73
2021/03/31 02:31:16;;;;;;;11.70;5.50;;;9.00;1.00;;;;;;5050259;28;20029;-73
2021/03/31 02:33:44;;;;;;;7.88;5.25;;;8.90;1.00;;;;;;5052607;28;20021;-72
2021/03/31 02:36:13;;;;;;;12.05;5.75;;;8.80;1.00;;;;;;5051270;28;20048;-73
2021/03/31 02:38:41;;;;;;;9.25;4.93;;;8.80;1.00;;;;;;5045546;28;20112;-73
2021/03/31 02:41:07;;;;;;;10.25;6.10;;;8.80;1.00;;;;;;5051999;28;20025;-72
2021/03/31 02:43:34;;;;;;;12.05;6.43;;;8.80;1.00;;;;;;5052508;28;20113;-72
2021/03/31 02:46:02;;;;;;;6.90;5.38;;;8.70;1.00;;;;;;5044709;28;20166;-72
2021/03/31 02:48:28;;;;;;;7.35;5.63;;;8.80;1.00;;;;;;5048727;28;20026;-73
2021/03/31 02:50:57;;;;;;;11.18;6.18;;;8.80;1.00;;;;;;5039876;28;20573;-72
2021/03/31 02:53:24;;;;;;;10.63;5.82;;;8.80;1.00;;;;;;5053683;28;20493;-72
2021/03/31 02:55:51;;;;;;;9.88;6.20;;;8.70;1.00;;;;;;5064150;22;20045;-73
2021/03/31 02:58:17;;;;;;;9.77;5.90;;;8.70;1.00;;;;;;5031463;28;20022;-72
2021/03/31 03:00:43;;;;;;;15.45;6.45;;;8.60;1.00;;;;;;5024801;28;20025;-73
2021/03/31 03:03:09;;;;;;;11.02;6.38;;;8.60;1.00;;;;;;5030371;28;20092;-74
2021/03/31 03:05:36;;;;;;;12.57;6.05;;;8.70;1.00;;;;;;5029117;28;20025;-73
2021/03/31 03:08:03;;;;;;;15.27;5.50;;;8.60;1.00;;;;;;5028825;28;20025;-73
2021/03/31 03:10:29;;;;;;;9.30;6.10;;;8.60;1.00;;;;;;5024838;28;20030;-74
2021/03/31 03:12:57;;;;;;;8.38;6.13;;;8.60;1.00;;;;;;5031811;28;20034;-74
2021/03/31 03:15:26;;;;;;;11.18;6.13;;;8.60;1.00;;;;;;5029197;28;20034;-74
2021/03/31 03:17:52;;;;;;;11.45;6.63;;;8.50;1.00;;;;;;5032118;28;20026;-74
2021/03/31 03:20:19;;;;;;;10.68;6.40;;;8.50;1.00;;;;;;5023491;28;20048;-74
2021/03/31 03:22:52;;;;;;;11.85;6.60;;;8.50;1.00;;;;;;5021615;28;20060;-75
2021/03/31 03:25:20;;;;;;;10.23;6.60;;;8.40;1.00;;;;;;5023555;28;20046;-74
2021/03/31 03:27:47;;;;;;;15.60;6.78;;;8.40;1.00;;;;;;5029567;28;20060;-73
2021/03/31 03:30:16;;;;;;;15.15;7.05;;;8.30;1.00;;;;;;5022243;28;20030;-74
2021/03/31 03:32:44;;;;;;;10.73;6.45;;;8.30;1.30;;;;;;5027725;28;20025;-74
2021/03/31 03:35:13;;;;;;;13.55;7.43;;;8.30;2.70;;;;;;5023193;28;20387;-74
2021/03/31 03:37:39;;;;;;;12.13;8.55;;;8.40;1.00;;;;;;5031262;28;20049;-74
2021/03/31 03:40:05;;;;;;;13.20;7.80;;;8.40;1.20;;;;;;5019787;28;20395;-74
2021/03/31 03:42:31;;;;;;;10.50;6.30;;;8.40;1.00;;;;;;5026952;28;20025;-74
2021/03/31 03:45:02;;;;;;;11.80;7.25;;;8.30;1.00;;;;;;5024943;28;20048;-74
2021/03/31 03:47:29;;;;;;;9.40;6.15;;;8.20;1.00;;;;;;5031729;28;20033;-74
2021/03/31 03:49:54;;;;;;;10.48;6.28;;;8.20;6.40;;;;;;5028478;28;20041;-75
2021/03/31 03:52:22;;;;;;;14.20;7.65;;;8.20;11.30;;;;;;5034431;28;20528;-75
2021/03/31 03:54:55;;;;;;;14.55;7.25;;;8.20;22.10;;;;;;5028332;28;20044;-75
2021/03/31 03:57:25;;;;;;;11.73;6.85;;;8.10;42.00;;;;;;5034886;28;20080;-75
2021/03/31 03:59:52;;;;;;;10.07;6.15;;;8.00;63.00;;;;;;5025634;28;20391;-74
2021/03/31 04:02:17;;;;;;;9.10;7.10;;;8.00;58.30;;;;;;5045005;28;20032;-76
2021/03/31 04:04:43;;;;;;;15.48;7.93;;;8.10;68.10;;;;;;5040804;28;20435;-75
2021/03/31 04:07:09;;;;;;;12.57;7.18;;;8.10;65.50;;;;;;5034724;28;20523;-75
2021/03/31 04:09:36;;;;;;;12.55;7.03;;;8.00;67.10;;;;;;5032214;28;20026;-72
2021/03/31 04:12:02;;;;;;;10.93;7.63;;;8.00;92.10;;;;;;5025194;28;20040;-74
2021/03/31 04:14:29;;;;;;;12.45;6.80;;;8.00;95.40;;;;;;5019694;28;20414;-73
2021/03/31 04:16:56;;;;;;;9.63;6.72;;;8.10;90.20;;;;;;5034397;28;20025;-73
2021/03/31 04:19:23;;;;;;;16.02;7.70;;;8.10;63.90;;;;;;5045377;28;20017;-73
2021/03/31 04:21:49;;;;;;;16.67;7.13;;;8.10;75.30;;;;;;5050979;28;20029;-73
2021/03/31 04:24:15;;;;;;;13.25;7.00;;;8.00;74.70;;;;;;5035017;28;20032;-74
2021/03/31 04:26:42;;;;;;;22.00;7.72;;;8.00;92.40;;;;;;5034614;28;20485;-74
2021/03/31 04:29:08;;;;;;;10.82;7.68;;;8.00;77.00;;;;;;5028186;28;20025;-75
2021/03/31 04:31:36;;;;;;;14.30;7.47;;;8.00;48.50;;;;;;5026429;28;20025;-74
2021/03/31 04:34:04;;;;;;;17.73;7.47;;;7.90;43.40;;;;;;5028737;28;20402;-75
2021/03/31 04:36:29;;;;;;;12.15;7.70;;;8.00;47.00;;;;;;5029429;28;20037;-75
2021/03/31 04:38:55;;;;;;;13.02;7.38;;;7.90;55.70;;;;;;5025972;28;20080;-75
2021/03/31 04:41:21;;;;;;;13.48;7.22;;;7.90;42.30;;;;;;5031559;28;20407;-75
2021/03/31 04:43:46;;;;;;;15.25;8.20;;;8.00;50.70;;;;;;5033896;28;20029;-74
2021/03/31 04:46:12;;;;;;;16.42;8.43;;;8.00;51.90;;;;;;5036078;28;20034;-75
2021/03/31 04:48:38;;;;;;;11.77;8.07;;;8.00;36.00;;;;;;5041914;28;20038;-74
2021/03/31 04:51:06;;;;;;;33.90;8.50;;;8.10;35.40;;;;;;5048446;28;20084;-73
2021/03/31 04:53:32;;;;;;;29.20;10.25;;;8.10;24.60;;;;;;5039748;28;20017;-75
2021/03/31 04:55:58;;;;;;;20.52;7.45;;;8.10;33.70;;;;;;5037305;28;20029;-74
2021/03/31 04:58:24;;;;;;;24.08;10.23;;;8.10;11.70;;;;;;5035071;28;20071;-74
2021/03/31 05:00:50;;;;;;;21.20;8.80;;;8.10;36.50;;;;;;5029054;28;20030;-74
2021/03/31 05:03:19;;;;;;;26.15;9.88;;;8.10;17.60;;;;;;5033923;28;20030;-75
2021/03/31 05:05:44;;;;;;;19.33;9.23;;;8.10;34.70;;;;;;5038069;28;20040;-75
2021/03/31 05:08:11;;;;;;;27.35;9.48;;;8.10;25.80;;;;;;5031793;28;20033;-75
2021/03/31 05:10:36;;;;;;;22.23;9.27;;;8.20;27.40;;;;;;5035440;28;20026;-74
2021/03/31 05:13:02;;;;;;;20.00;9.63;;;8.20;29.70;;;;;;5033118;28;20030;-75
2021/03/31 05:15:28;;;;;;;17.52;8.20;;;8.20;19.30;;;;;;5036548;28;20096;-75
2021/03/31 05:17:53;;;;;;;13.05;8.68;;;8.40;1.00;;;;;;5035815;28;20026;-75
2021/03/31 05:20:19;;;;;;;12.85;7.65;;;8.60;1.00;;;;;;5030403;28;20045;-75
2021/03/31 05:22:45;;;;;;;15.48;8.13;;;8.70;1.00;;;;;;5023825;28;20041;-76
2021/03/31 05:25:11;;;;;;;17.23;8.75;;;8.90;1.00;;;;;;5028795;28;20033;-74
2021/03/31 05:27:37;;;;;;;17.67;7.82;;;9.10;99.90;;;;;;5030955;28;20033;-74
2021/03/31 05:30:10;;;;;;;17.55;7.70;;;9.30;99.90;;;;;;5019984;28;20179;-75
2021/03/31 05:32:36;;;;;;;19.92;8.38;;;9.60;99.90;;;;;;5022225;28;20052;-75
2021/03/31 05:35:03;;;;;;;17.95;7.72;;;9.90;64.60;;;;;;5028453;28;20493;-75
2021/03/31 05:37:29;;;;;;;16.67;8.52;;;9.90;1.00;;;;;;5031189;28;20397;-75
2021/03/31 05:39:54;;;;;;;17.50;9.07;;;10.10;1.00;;;;;;5026932;28;20029;-75
2021/03/31 05:42:20;;;;;;;9.98;6.90;;;10.30;99.90;;;;;;5024102;28;20500;-74
2021/03/31 05:44:46;;;;;;;14.02;7.65;;;10.70;1.00;;;;;;5033147;28;20029;-74
2021/03/31 05:47:46;;;;;;;20.25;8.15;;;10.70;99.90;;;;;;5029362;28;20109;-74
2021/03/31 05:50:07;;;;;;;18.00;8.13;;;10.80;99.90;;;;;;5028872;28;20095;-75
2021/03/31 05:52:33;;;;;;;18.60;6.93;;;10.70;99.90;;;;;;5032703;28;20014;-74
2021/03/31 05:55:01;;;;;;;21.33;7.72;;;10.80;99.90;;;;;;5027987;28;20079;-75
2021/03/31 05:57:31;;;;;;;29.00;7.75;;;11.00;99.90;;;;;;5032824;28;20030;-74
2021/03/31 05:59:57;;;;;;;13.57;7.60;;;10.80;82.20;;;;;;5031906;28;20100;-75
2021/03/31 06:02:23;;;;;;;14.13;6.70;;;10.90;1.00;;;;;;5029598;28;20458;-75
2021/03/31 06:04:51;;;;;;;13.90;6.63;;;10.90;1.00;;;;;;5033137;28;20022;-74
2021/03/31 06:07:17;;;;;;;14.07;6.95;;;10.90;1.00;;;;;;5033671;28;20048;-74
2021/03/31 06:10:07;;;;;;;14.27;7.28;;;10.60;99.90;;;;;;5022595;28;20049;-74
2021/03/31 06:12:35;;;;;;;17.25;7.78;;;10.70;99.90;;;;;;5028636;28;20026;-74
2021/03/31 06:15:16;;;;;;;18.85;7.78;;;10.60;99.90;;;;;;5027568;28;20065;-74
2021/03/31 06:17:54;;;;;;;18.50;7.25;;;10.40;1.00;;;;;;5025716;28;20026;-75
2021/03/31 06:20:55;;;;;;;19.02;6.95;;;10.40;3.40;;;;;;5028808;28;20033;-75
2021/03/31 06:26:22;;;;;;;10.77;6.85;;;10.70;99.90;;;;;;5021693;28;19910;-75
2021/03/31 06:28:53;;;;;;;8.05;6.70;;;10.90;99.90;;;;;;5025656;28;20105;-74
2021/03/31 06:31:19;;;;;;;14.02;6.50;;;11.00;26.80;;;;;;5027719;28;20092;-76
2021/03/31 06:33:47;;;;;;;11.70;5.82;;;11.00;1.00;;;;;;5032294;28;20030;-75
2021/03/31 06:36:14;;;;;;;8.32;6.40;;;11.00;1.00;;;;;;5040453;28;20051;-74
2021/03/31 06:38:50;;;;;;;12.00;6.55;;;10.80;99.90;;;;;;5034227;28;20026;-75
2021/03/31 06:41:27;;;;;;;11.88;6.20;;;10.80;99.90;;;;;;5016809;28;20026;-74
2021/03/31 06:44:00;;;;;;;10.88;7.38;;;10.90;99.90;;;;;;5026606;28;20021;-74
2021/03/31 06:49:27;;;;;;;;;;;11.10;1.00;;;;;;4990228;28;20113;-74
2021/03/31 06:52:05;;;;;;;10.27;7.43;;;11.10;1.00;;;;;;5017997;28;19948;-75
2021/03/31 06:54:42;;;;;;;11.38;6.38;;;11.10;1.00;;;;;;5022771;28;20109;-75
2021/03/31 06:57:08;;;;;;;13.02;7.38;;;11.20;1.00;;;;;;5027363;28;20033;-74
2021/03/31 06:59:34;;;;;;;9.98;7.43;;;11.00;99.90;;;;;;5030311;28;20021;-76
2021/03/31 07:02:04;;;;;;;13.63;6.95;;;11.00;99.90;;;;;;5032220;28;20073;-74
2021/03/31 07:04:31;;;;;;;13.75;7.10;;;11.00;99.90;;;;;;5030150;28;20029;-74
2021/03/31 07:07:03;;;;;;;11.50;7.18;;;11.00;99.90;;;;;;5028411;28;20037;-76
2021/03/31 07:09:30;;;;;;;12.50;7.13;;;11.10;99.90;;;;;;5028380;28;20668;-73
2021/03/31 07:11:56;;;;;;;11.18;6.63;;;11.30;99.90;;;;;;5042519;28;20107;-76
2021/03/31 07:14:23;;;;;;;11.95;6.78;;;11.20;99.90;;;;;;5029976;28;20487;-74
2021/03/31 07:16:50;;;;;;;15.70;7.35;;;11.20;99.90;;;;;;5034007;28;20341;-75
2021/03/31 07:19:16;;;;;;;15.73;7.10;;;11.20;99.90;;;;;;5035196;28;20044;-75
2021/03/31 07:21:42;;;;;;;15.95;7.57;;;11.20;99.90;;;;;;5036248;28;20409;-75
2021/03/31 07:24:08;;;;;;;9.88;7.40;;;11.50;1.00;;;;;;5035598;28;20025;-75
2021/03/31 07:26:34;;;;;;;11.18;7.63;;;11.70;99.90;;;;;;5035086;28;20084;-75
2021/03/31 07:29:00;;;;;;;16.83;9.63;;;11.50;99.90;;;;;;5036072;28;20064;-75
2021/03/31 07:31:29;;;;;;;13.02;7.70;;;11.60;99.90;;;;;;5035673;28;20026;-75
2021/03/31 07:34:17;;;;;;;11.63;8.10;;;11.60;99.90;;;;;;5030385;28;20032;-74
2021/03/31 07:36:47;;;;;;;10.55;7.22;;;11.90;99.90;;;;;;5028263;28;20021;-75
2021/03/31 07:39:13;;;;;;;14.98;8.02;;;11.90;1.00;;;;;;5034164;28;20516;-75
2021/03/31 07:41:40;;;;;;;10.32;7.25;;;12.20;77.70;;;;;;5033337;28;20474;-75
2021/03/31 07:44:12;;;;;;;9.88;7.72;;;12.30;99.90;;;;;;5033086;28;20048;-75
2021/03/31 07:46:38;;;;;;;;;;;12.40;22.30;;;;;;5036131;28;20017;-75
2021/03/31 07:49:04;;;;;;;14.18;8.10;;;12.20;99.90;;;;;;5034521;28;19905;-75
2021/03/31 07:51:31;;;;;;;12.10;7.28;;;12.50;71.90;;;;;;5035821;28;20036;-75
2021/03/31 07:53:58;;;;;;;11.02;7.75;;;12.60;1.00;;;;;;5029678;28;20034;-78
2021/03/31 07:56:30;;;;;;;10.45;7.57;;;12.60;1.00;;;;;;5039530;28;20041;-74
2021/03/31 07:59:01;;;;;;;15.98;8.10;;;13.00;99.90;;;;;;5043914;28;20032;-75
2021/03/31 08:01:37;;;;;;;12.70;7.50;;;13.10;99.90;;;;;;5037504;28;20107;-74
2021/03/31 08:04:03;;;;;;;13.02;8.10;;;13.20;99.90;;;;;;5033789;28;20021;-75
2021/03/31 08:06:30;;;;;;;17.23;8.45;;;13.40;82.50;;;;;;5034234;28;20453;-74
2021/03/31 08:09:04;;;;;;;16.83;8.93;;;13.60;1.00;;;;;;5035329;28;20512;-74
2021/03/31 08:11:38;;;;;;;10.98;7.75;;;13.60;99.90;;;;;;5034086;28;20025;-75
2021/03/31 08:14:09;;;;;;;10.55;8.07;;;13.70;99.90;;;;;;5032705;28;20026;-75
2021/03/31 08:16:38;;;;;;;12.38;7.07;;;13.90;99.90;;;;;;5025611;28;20032;-75
2021/03/31 08:19:15;;;;;;;16.88;8.48;;;14.00;99.90;;;;;;5033950;28;20493;-75
2021/03/31 08:21:42;;;;;;;18.30;8.63;;;14.00;99.90;;;;;;5035275;28;20116;-76
2021/03/31 08:24:09;;;;;;;18.00;8.40;;;14.10;99.90;;;;;;5031598;28;20026;-75
2021/03/31 08:26:39;;;;;;;17.38;7.22;;;14.30;72.10;;;;;;5034189;28;20029;-74
2021/03/31 08:29:08;;;;;;;17.87;8.30;;;14.10;99.90;;;;;;5029200;28;20021;-75
2021/03/31 08:31:41;;;;;;;12.75;8.55;;;14.30;99.90;;;;;;5027465;28;20271;-77
2021/03/31 08:34:08;;;;;;;19.25;8.65;;;14.60;1.00;;;;;;5035242;28;20501;-74
2021/03/31 08:36:36;;;;;;;14.95;7.97;;;14.70;1.00;;;;;;5034423;28;20049;-75
2021/03/31 08:39:03;;;;;;;13.68;7.90;;;14.90;1.00;;;;;;5034092;28;20021;-74
2021/03/31 08:41:29;;;;;;;14.77;10.07;;;15.10;99.90;;;;;;5033300;28;20044;-75
2021/03/31 08:44:20;;;;;;;18.13;9.15;;;15.30;99.90;;;;;;5029274;28;20026;-75
2021/03/31 08:46:46;;;;;;;;;;;15.50;99.90;;;;;;5028530;28;20445;-76
2021/03/31 08:49:21;;;;;;;17.23;9.10;;;15.40;99.90;;;;;;5031201;28;19921;-76
2021/03/31 08:51:50;;;;;;;15.57;8.45;;;15.50;99.90;;;;;;5026036;28;20029;-74
2021/03/31 08:54:16;;;;;;;14.90;8.07;;;15.70;99.90;;;;;;5026521;28;20033;-74
2021/03/31 08:56:48;;;;;;;9.35;7.30;;;15.80;99.90;;;;;;5056768;22;20110;-74
2021/03/31 08:59:14;;;;;;;21.55;8.52;;;15.90;99.90;;;;;;5034450;28;20037;-74
2021/03/31 09:01:40;;;;;;;12.43;8.32;;;16.00;99.90;;;;;;5033878;28;20029;-73
2021/03/31 09:04:17;;;;;;;24.13;8.32;;;16.20;99.60;;;;;;5034873;28;20342;-73
2021/03/31 09:06:43;;;;;;;13.40;7.72;;;16.20;78.30;;;;;;5034506;28;20045;-74
2021/03/31 09:09:08;;;;;;;12.35;8.73;;;16.30;39.50;;;;;;5035762;28;20111;-73
2021/03/31 09:11:34;;;;;;;17.95;8.88;;;16.30;19.10;;;;;;5044437;28;20029;-74
2021/03/31 09:14:18;;;;;;;17.42;8.95;;;16.40;3.00;;;;;;5032252;28;20037;-74
2021/03/31 09:16:58;;;;;;;15.55;8.25;;;16.50;1.00;;;;;;5032939;28;20080;-75
2021/03/31 09:19:25;;;;;;;20.38;9.18;;;16.60;1.00;;;;;;5039837;28;20077;-73
2021/03/31 09:21:51;;;;;;;15.68;9.18;;;16.70;1.00;;;;;;5039904;28;20076;-74
2021/03/31 09:24:20;;;;;;;11.82;8.98;;;16.80;1.00;;;;;;5031311;28;20030;-73
2021/03/31 09:27:04;;;;;;;16.17;8.93;;;16.90;1.00;;;;;;5041876;28;20017;-72
2021/03/31 09:29:31;;;;;;;13.80;9.18;;;17.10;1.00;;;;;;5035354;28;20022;-75
2021/03/31 09:32:00;;;;;;;19.90;8.65;;;17.30;1.00;;;;;;5042024;28;20477;-74
2021/03/31 09:34:25;;;;;;;14.90;8.32;;;17.40;1.00;;;;;;5040375;28;20071;-74
2021/03/31 09:36:57;;;;;;;12.77;8.20;;;17.50;1.00;;;;;;5039775;28;20033;-73
2021/03/31 09:39:36;;;;;;;15.52;8.98;;;17.60;1.00;;;;;;5037698;28;20021;-75
2021/03/31 09:42:02;;;;;;;18.25;8.82;;;17.60;99.90;;;;;;5035026;28;20021;-72
2021/03/31 09:44:28;;;;;;;16.30;10.27;;;17.80;99.90;;;;;;5034821;28;20044;-73
2021/03/31 09:46:54;;;;;;;17.33;9.70;;;17.80;99.90;;;;;;5034968;28;20488;-73
2021/03/31 09:49:19;;;;;;;11.50;8.80;;;18.00;99.90;;;;;;5033449;28;20033;-73
2021/03/31 09:51:45;;;;;;;12.38;8.63;;;18.10;99.90;;;;;;5034656;28;20115;-74
2021/03/31 09:54:10;;;;;;;17.90;8.50;;;18.30;99.90;;;;;;5035513;28;20032;-72
2021/03/31 09:56:36;;;;;;;14.23;9.15;;;18.40;99.90;;;;;;5034426;28;20525;-74
2021/03/31 09:59:02;;;;;;;13.48;8.55;;;18.40;99.90;;;;;;5035178;28;20014;-74
2021/03/31 10:01:27;;;;;;;15.25;8.95;;;18.50;99.90;;;;;;5035582;28;20493;-73
2021/03/31 10:03:54;;;;;;;15.15;8.88;;;18.70;99.90;;;;;;5031563;28;20371;-75
2021/03/31 10:06:24;;;;;;;15.20;9.18;;;18.90;99.90;;;;;;5031989;28;20053;-74
2021/03/31 10:08:50;;;;;;;14.10;8.68;;;19.00;99.90;;;;;;5027312;28;20053;-77
2021/03/31 10:11:36;;;;;;;15.77;8.75;;;19.10;99.90;;;;;;5034648;28;20021;-75
2021/03/31 10:14:04;;;;;;;15.82;8.98;;;19.20;99.90;;;;;;5034263;28;20048;-76
2021/03/31 10:16:35;;;;;;;13.40;9.07;;;19.50;99.90;;;;;;5035194;28;20025;-74
2021/03/31 10:19:04;;;;;;;16.25;8.95;;;19.70;99.90;;;;;;5033905;28;20051;-74
2021/03/31 10:21:31;;;;;;;12.02;8.90;;;19.80;99.90;;;;;;5032617;28;20026;-75
2021/03/31 10:23:57;;;;;;;16.13;8.90;;;19.80;99.90;;;;;;5033452;28;20539;-75
2021/03/31 10:26:27;;;;;;;15.80;8.25;;;20.00;99.90;;;;;;5034359;28;20097;-74
2021/03/31 10:29:01;;;;;;;13.10;9.00;;;20.20;99.90;;;;;;5034116;28;20052;-75
2021/03/31 10:31:31;;;;;;;11.55;8.35;;;20.30;99.90;;;;;;5034482;28;20107;-75
2021/03/31 10:33:57;;;;;;;12.70;8.23;;;20.40;99.90;;;;;;5030375;28;20116;-75
2021/03/31 10:36:51;;;;;;;11.95;8.38;;;20.50;99.90;;;;;;5041410;28;20025;-76
2021/03/31 10:49:59;;;;;;;8.85;7.20;;;21.00;19.30;;;;;;5015944;28;20045;-74
2021/03/31 10:52:28;;;;;;;10.00;7.43;;;21.20;12.30;;;;;;5031359;28;20406;-76
2021/03/31 10:54:55;;;;;;;13.27;8.65;;;21.20;8.70;;;;;;5010804;28;20042;-75
2021/03/31 10:57:21;;;;;;;12.48;8.48;;;21.20;7.30;;;;;;5032251;28;20490;-76
2021/03/31 10:59:46;;;;;;;14.50;7.50;;;21.50;3.00;;;;;;5016739;28;20072;-75
2021/03/31 11:02:12;;;;;;;12.85;8.52;;;21.60;1.50;;;;;;5017187;28;20397;-75
2021/03/31 11:04:38;;;;;;;9.95;7.97;;;21.60;1.00;;;;;;5033814;28;20032;-76
2021/03/31 11:07:04;;;;;;;14.00;8.77;;;21.80;1.00;;;;;;5033878;28;20030;-76
2021/03/31 11:09:30;;;;;;;12.88;8.70;;;21.90;1.00;;;;;;5034661;28;20041;-75
2021/03/31 11:11:56;;;;;;;12.30;8.95;;;21.70;1.00;;;;;;5037291;28;20026;-74
2021/03/31 11:14:22;;;;;;;13.43;8.30;;;21.90;1.00;;;;;;5037787;28;20056;-75
2021/03/31 11:16:53;;;;;;;12.07;7.85;;;22.00;1.00;;;;;;5039386;28;20037;-76
2021/03/31 11:19:33;;;;;;;11.63;8.30;;;22.30;1.00;;;;;;5042244;28;20032;-74
2021/03/31 11:27:27;;;;;;;9.02;7.65;;;22.60;1.00;;;;;;5029160;28;20033;-76
2021/03/31 11:29:52;;;;;;;12.43;9.18;;;22.50;1.00;;;;;;5027418;28;20029;-76
2021/03/31 11:32:18;;;;;;;13.80;8.93;;;22.90;1.00;;;;;;5025386;28;20034;-76
2021/03/31 11:34:43;;;;;;;11.43;8.30;;;22.90;1.00;;;;;;5027156;28;20148;-75
2021/03/31 11:37:09;;;;;;;12.70;9.32;;;23.00;1.00;;;;;;5032243;28;20100;-75
2021/03/31 11:39:35;;;;;;;15.82;9.25;;;22.90;1.00;;;;;;5017052;28;20050;-76
2021/03/31 11:42:01;;;;;;;10.25;8.63;;;22.90;1.00;;;;;;5017727;28;20444;-74
2021/03/31 11:44:27;;;;;;;19.83;9.70;;;22.90;1.00;;;;;;5031432;28;20067;-76
2021/03/31 11:46:52;;;;;;;14.82;8.68;;;23.00;1.00;;;;;;5030502;28;20029;-76
2021/03/31 11:49:18;;;;;;;11.10;9.55;;;23.40;1.00;;;;;;5032792;28;20026;-77
2021/03/31 11:51:43;;;;;;;11.55;9.35;;;23.50;1.00;;;;;;5032881;28;20029;-74
2021/03/31 11:54:11;;;;;;;11.05;8.05;;;23.50;1.00;;;;;;5028707;28;20063;-76
2021/03/31 11:56:37;;;;;;;17.75;9.30;;;23.50;1.00;;;;;;5015573;28;20021;-75
2021/03/31 11:59:03;;;;;;;15.80;10.45;;;23.50;1.00;;;;;;5029732;28;20025;-76
2021/03/31 12:01:28;;;;;;;15.82;9.32;;;23.40;1.00;;;;;;5029642;28;20040;-76
2021/03/31 12:03:54;;;;;;;15.02;9.20;;;23.40;1.00;;;;;;5034106;28;20021;-76
2021/03/31 12:06:19;;;;;;;14.15;8.65;;;23.60;1.00;;;;;;5035701;28;20029;-76
2021/03/31 12:08:47;;;;;;;12.27;8.73;;;23.70;1.00;;;;;;5038067;28;20104;-76
2021/03/31 12:11:14;;;;;;;14.77;9.98;;;23.70;1.00;;;;;;5033431;28;20034;-76
2021/03/31 12:13:40;;;;;;;14.23;10.15;;;23.60;1.00;;;;;;5049895;28;20029;-77
2021/03/31 12:16:06;;;;;;;13.20;9.85;;;23.60;1.00;;;;;;5035002;28;20026;-75
2021/03/31 12:18:32;;;;;;;13.77;9.02;;;23.80;1.00;;;;;;5045555;28;20029;-75
2021/03/31 12:20:57;;;;;;;11.23;8.95;;;23.80;1.00;;;;;;5035109;28;20026;-77
2021/03/31 12:23:23;;;;;;;17.67;9.32;;;23.80;1.00;;;;;;5030316;28;20033;-77
2021/03/31 12:25:49;;;;;;;12.32;9.65;;;23.80;1.00;;;;;;5038704;28;20025;-76
2021/03/31 12:28:15;;;;;;;13.25;10.07;;;23.90;1.00;;;;;;5032853;28;20089;-76
2021/03/31 12:30:40;;;;;;;11.45;9.73;;;23.80;1.00;;;;;;5030470;28;20430;-76
2021/03/31 12:33:06;;;;;;;15.90;11.57;;;23.80;1.00;;;;;;5030609;28;20033;-75
2021/03/31 12:35:32;;;;;;;17.65;10.70;;;23.90;1.00;;;;;;5017195;28;20065;-75
2021/03/31 12:37:58;;;;;;;15.02;10.43;;;23.80;1.00;;;;;;5023468;28;20052;-75
2021/03/31 12:40:24;;;;;;;12.75;10.20;;;23.90;1.00;;;;;;5029865;28;20033;-76
2021/03/31 12:42:49;;;;;;;13.48;10.13;;;23.90;1.00;;;;;;5037138;28;20025;-76
2021/03/31 12:45:15;;;;;;;12.10;9.50;;;23.90;1.00;;;;;;5034545;28;20164;-77
2021/03/31 12:47:41;;;;;;;11.25;9.02;;;23.80;1.00;;;;;;5036650;28;20405;-77
2021/03/31 12:50:09;;;;;;;13.50;8.85;;;23.80;1.00;;;;;;5036451;28;20116;-76
2021/03/31 12:53:18;;;;;;;16.70;10.15;;;23.80;1.00;;;;;;5016325;28;20026;-76
2021/03/31 12:55:35;;;;;;;13.60;9.38;;;23.80;1.00;;;;;;5015532;28;20056;-76
2021/03/31 12:58:08;;;;;;;16.08;10.05;;;24.10;1.00;;;;;;5021231;28;20025;-76
2021/03/31 13:00:33;;;;;;;14.20;9.23;;;24.10;1.00;;;;;;5018245;28;20021;-76
2021/03/31 13:02:59;;;;;;;12.68;10.23;;;24.30;1.00;;;;;;5022822;28;20026;-74
2021/03/31 13:05:25;;;;;;;13.13;9.57;;;24.20;1.00;;;;;;5035481;28;20113;-76
2021/03/31 13:07:50;;;;;;;12.82;9.88;;;24.20;1.00;;;;;;5020905;28;20076;-76
2021/03/31 13:10:16;;;;;;;13.25;9.30;;;24.20;1.00;;;;;;5032667;28;20033;-75
2021/03/31 13:12:50;;;;;;;11.05;8.45;;;24.10;1.00;;;;;;5038637;28;20033;-75
2021/03/31 13:15:33;;;;;;;14.52;10.38;;;24.20;1.00;;;;;;5035991;28;20025;-75
2021/03/31 13:18:14;;;;;;;11.93;9.10;;;24.10;1.00;;;;;;5036614;28;20085;-75